sensor_id;sensor_type;location;lat;lon;timestamp;P1;durP1;ratioP1;P2;durP2;ratioP2
68479;SDS011;55469;48.934;12.050;2023-06-22T00:00:27;6.75;;;3.08;;
68479;SDS011;55469;48.934;12.050;2023-06-22T00:02:53;7.88;;;3.00;;
68479;SDS011;55469;48.934;12.050;2023-06-22T00:05:18;5.15;;;2.85;;
68479;SDS011;55469;48.934;12.050;2023-06-22T00:07:44;9.48;;;3.22;;
68479;SDS011;55469;48.934;12.050;2023-06-22T00:10:10;6.63;;;3.00;;
68479;SDS011;55469;48.934;12.050;2023-06-22T00:12:36;5.72;;;3.00;;
68479;SDS011;55469;48.934;12.050;2023-06-22T00:15:02;8.18;;;3.33;;
68479;SDS011;55469;48.934;12.050;2023-06-22T00:17:28;6.65;;;3.35;;
68479;SDS011;55469;48.934;12.050;2023-06-22T00:19:54;8.25;;;3.55;;
68479;SDS011;55469;48.934;12.050;2023-06-22T00:22:20;9.75;;;3.30;;
68479;SDS011;55469;48.934;12.050;2023-06-22T00:24:53;4.97;;;3.15;;
68479;SDS011;55469;48.934;12.050;2023-06-22T00:27:20;4.07;;;3.00;;
68479;SDS011;55469;48.934;12.050;2023-06-22T00:29:46;8.20;;;3.20;;
68479;SDS011;55469;48.934;12.050;2023-06-22T00:32:12;8.02;;;3.40;;
68479;SDS011;55469;48.934;12.050;2023-06-22T00:34:37;6.93;;;4.00;;
68479;SDS011;55469;48.934;12.050;2023-06-22T00:37:03;10.65;;;3.97;;
68479;SDS011;55469;48.934;12.050;2023-06-22T00:39:29;4.88;;;3.17;;
68479;SDS011;55469;48.934;12.050;2023-06-22T00:41:55;6.78;;;3.38;;
68479;SDS011;55469;48.934;12.050;2023-06-22T00:44:22;6.28;;;3.90;;
68479;SDS011;55469;48.934;12.050;2023-06-22T00:46:48;8.73;;;3.40;;
68479;SDS011;55469;48.934;12.050;2023-06-22T00:49:14;8.73;;;3.88;;
68479;SDS011;55469;48.934;12.050;2023-06-22T00:51:39;6.10;;;3.72;;
68479;SDS011;55469;48.934;12.050;2023-06-22T00:54:10;8.77;;;3.47;;
68479;SDS011;55469;48.934;12.050;2023-06-22T00:56:38;8.35;;;3.65;;
68479;SDS011;55469;48.934;12.050;2023-06-22T00:59:08;6.53;;;3.35;;
68479;SDS011;55469;48.934;12.050;2023-06-22T01:01:37;7.50;;;3.42;;
68479;SDS011;55469;48.934;12.050;2023-06-22T01:04:06;7.15;;;3.28;;
68479;SDS011;55469;48.934;12.050;2023-06-22T01:06:34;4.75;;;3.40;;
68479;SDS011;55469;48.934;12.050;2023-06-22T01:09:13;6.93;;;3.70;;
68479;SDS011;55469;48.934;12.050;2023-06-22T01:11:45;7.65;;;3.80;;
68479;SDS011;55469;48.934;12.050;2023-06-22T01:14:23;4.30;;;3.42;;
68479;SDS011;55469;48.934;12.050;2023-06-22T01:16:53;7.05;;;3.60;;
68479;SDS011;55469;48.934;12.050;2023-06-22T01:22:00;6.72;;;3.88;;
68479;SDS011;55469;48.934;12.050;2023-06-22T01:30:45;6.78;;;3.85;;
68479;SDS011;55469;48.934;12.050;2023-06-22T01:33:15;8.90;;;4.80;;
68479;SDS011;55469;48.934;12.050;2023-06-22T01:35:42;6.20;;;4.32;;
68479;SDS011;55469;48.934;12.050;2023-06-22T01:38:08;7.88;;;4.50;;
68479;SDS011;55469;48.934;12.050;2023-06-22T01:40:34;8.32;;;4.65;;
68479;SDS011;55469;48.934;12.050;2023-06-22T01:43:01;10.57;;;4.72;;
68479;SDS011;55469;48.934;12.050;2023-06-22T01:45:28;7.10;;;4.82;;
68479;SDS011;55469;48.934;12.050;2023-06-22T01:47:54;9.95;;;4.78;;
68479;SDS011;55469;48.934;12.050;2023-06-22T01:50:20;7.85;;;4.68;;
68479;SDS011;55469;48.934;12.050;2023-06-22T01:52:48;8.70;;;4.63;;
68479;SDS011;55469;48.934;12.050;2023-06-22T01:55:14;8.68;;;5.50;;
68479;SDS011;55469;48.934;12.050;2023-06-22T01:57:40;10.40;;;4.97;;
68479;SDS011;55469;48.934;12.050;2023-06-22T02:00:07;7.28;;;5.15;;
68479;SDS011;55469;48.934;12.050;2023-06-22T02:05:12;7.88;;;4.97;;
68479;SDS011;55469;48.934;12.050;2023-06-22T02:10:36;9.00;;;5.20;;
68479;SDS011;55469;48.934;12.050;2023-06-22T02:13:04;6.15;;;4.25;;
68479;SDS011;55469;48.934;12.050;2023-06-22T02:15:33;7.13;;;4.82;;
68479;SDS011;55469;48.934;12.050;2023-06-22T02:17:59;7.88;;;4.97;;
68479;SDS011;55469;48.934;12.050;2023-06-22T02:20:26;7.85;;;4.63;;
68479;SDS011;55469;48.934;12.050;2023-06-22T02:22:51;8.75;;;4.75;;
68479;SDS011;55469;48.934;12.050;2023-06-22T02:25:17;7.40;;;4.50;;
68479;SDS011;55469;48.934;12.050;2023-06-22T02:27:45;8.18;;;4.45;;
68479;SDS011;55469;48.934;12.050;2023-06-22T02:30:11;7.95;;;4.72;;
68479;SDS011;55469;48.934;12.050;2023-06-22T02:32:39;9.20;;;4.90;;
68479;SDS011;55469;48.934;12.050;2023-06-22T02:35:06;7.70;;;4.53;;
68479;SDS011;55469;48.934;12.050;2023-06-22T02:37:33;6.78;;;4.50;;
68479;SDS011;55469;48.934;12.050;2023-06-22T02:40:07;6.65;;;4.50;;
68479;SDS011;55469;48.934;12.050;2023-06-22T02:42:37;8.02;;;4.70;;
68479;SDS011;55469;48.934;12.050;2023-06-22T02:45:04;7.93;;;4.50;;
68479;SDS011;55469;48.934;12.050;2023-06-22T02:47:30;7.97;;;5.25;;
68479;SDS011;55469;48.934;12.050;2023-06-22T02:49:56;7.57;;;4.43;;
68479;SDS011;55469;48.934;12.050;2023-06-22T02:52:22;8.98;;;4.82;;
68479;SDS011;55469;48.934;12.050;2023-06-22T02:54:48;10.00;;;4.95;;
68479;SDS011;55469;48.934;12.050;2023-06-22T02:57:13;7.10;;;4.85;;
68479;SDS011;55469;48.934;12.050;2023-06-22T02:59:40;7.25;;;5.03;;
68479;SDS011;55469;48.934;12.050;2023-06-22T03:02:06;8.18;;;4.47;;
68479;SDS011;55469;48.934;12.050;2023-06-22T03:04:34;7.65;;;5.18;;
68479;SDS011;55469;48.934;12.050;2023-06-22T03:07:00;7.47;;;4.68;;
68479;SDS011;55469;48.934;12.050;2023-06-22T03:09:26;8.10;;;5.45;;
68479;SDS011;55469;48.934;12.050;2023-06-22T03:11:54;8.80;;;5.25;;
68479;SDS011;55469;48.934;12.050;2023-06-22T03:14:20;8.68;;;5.43;;
68479;SDS011;55469;48.934;12.050;2023-06-22T03:16:45;8.32;;;4.95;;
68479;SDS011;55469;48.934;12.050;2023-06-22T03:19:11;10.00;;;5.20;;
68479;SDS011;55469;48.934;12.050;2023-06-22T03:21:38;6.63;;;4.93;;
68479;SDS011;55469;48.934;12.050;2023-06-22T03:24:05;5.97;;;4.78;;
68479;SDS011;55469;48.934;12.050;2023-06-22T03:26:31;6.28;;;4.55;;
68479;SDS011;55469;48.934;12.050;2023-06-22T03:28:58;7.80;;;4.55;;
68479;SDS011;55469;48.934;12.050;2023-06-22T03:31:24;8.18;;;4.68;;
68479;SDS011;55469;48.934;12.050;2023-06-22T03:33:50;6.80;;;4.78;;
68479;SDS011;55469;48.934;12.050;2023-06-22T03:36:16;9.63;;;5.10;;
68479;SDS011;55469;48.934;12.050;2023-06-22T03:38:46;8.77;;;5.47;;
68479;SDS011;55469;48.934;12.050;2023-06-22T03:41:12;7.95;;;4.50;;
68479;SDS011;55469;48.934;12.050;2023-06-22T03:43:38;8.23;;;5.32;;
68479;SDS011;55469;48.934;12.050;2023-06-22T03:46:04;8.88;;;5.53;;
68479;SDS011;55469;48.934;12.050;2023-06-22T03:48:30;7.10;;;4.82;;
68479;SDS011;55469;48.934;12.050;2023-06-22T03:50:56;8.52;;;5.07;;
68479;SDS011;55469;48.934;12.050;2023-06-22T03:53:22;8.23;;;5.10;;
68479;SDS011;55469;48.934;12.050;2023-06-22T03:55:51;9.48;;;5.57;;
68479;SDS011;55469;48.934;12.050;2023-06-22T03:58:18;8.73;;;5.03;;
68479;SDS011;55469;48.934;12.050;2023-06-22T04:00:48;8.73;;;5.35;;
68479;SDS011;55469;48.934;12.050;2023-06-22T04:03:16;9.50;;;5.55;;
68479;SDS011;55469;48.934;12.050;2023-06-22T04:05:46;7.07;;;4.70;;
68479;SDS011;55469;48.934;12.050;2023-06-22T04:08:12;9.38;;;5.30;;
68479;SDS011;55469;48.934;12.050;2023-06-22T04:10:39;7.30;;;4.93;;
68479;SDS011;55469;48.934;12.050;2023-06-22T04:13:04;7.18;;;5.07;;
68479;SDS011;55469;48.934;12.050;2023-06-22T04:15:30;8.30;;;5.05;;
68479;SDS011;55469;48.934;12.050;2023-06-22T04:17:56;7.57;;;4.90;;
68479;SDS011;55469;48.934;12.050;2023-06-22T04:20:22;8.73;;;5.45;;
68479;SDS011;55469;48.934;12.050;2023-06-22T04:22:50;9.52;;;5.95;;
68479;SDS011;55469;48.934;12.050;2023-06-22T04:25:19;9.82;;;5.88;;
68479;SDS011;55469;48.934;12.050;2023-06-22T04:27:45;7.47;;;5.82;;
68479;SDS011;55469;48.934;12.050;2023-06-22T04:30:11;11.52;;;6.22;;
68479;SDS011;55469;48.934;12.050;2023-06-22T04:32:41;9.25;;;5.32;;
68479;SDS011;55469;48.934;12.050;2023-06-22T04:35:07;8.45;;;5.43;;
68479;SDS011;55469;48.934;12.050;2023-06-22T04:37:33;7.90;;;5.63;;
68479;SDS011;55469;48.934;12.050;2023-06-22T04:39:59;8.82;;;5.70;;
68479;SDS011;55469;48.934;12.050;2023-06-22T04:42:26;9.43;;;5.97;;
68479;SDS011;55469;48.934;12.050;2023-06-22T04:44:51;8.10;;;5.72;;
68479;SDS011;55469;48.934;12.050;2023-06-22T04:47:18;9.77;;;5.75;;
68479;SDS011;55469;48.934;12.050;2023-06-22T04:49:44;7.47;;;5.70;;
68479;SDS011;55469;48.934;12.050;2023-06-22T04:52:10;7.22;;;5.40;;
68479;SDS011;55469;48.934;12.050;2023-06-22T04:54:37;8.93;;;5.65;;
68479;SDS011;55469;48.934;12.050;2023-06-22T04:57:06;8.50;;;5.97;;
68479;SDS011;55469;48.934;12.050;2023-06-22T04:59:36;7.13;;;5.10;;
68479;SDS011;55469;48.934;12.050;2023-06-22T05:02:06;7.47;;;5.70;;
68479;SDS011;55469;48.934;12.050;2023-06-22T05:04:33;6.45;;;5.10;;
68479;SDS011;55469;48.934;12.050;2023-06-22T05:07:01;7.63;;;5.95;;
68479;SDS011;55469;48.934;12.050;2023-06-22T05:09:28;7.57;;;6.00;;
68479;SDS011;55469;48.934;12.050;2023-06-22T05:11:54;6.75;;;5.07;;
68479;SDS011;55469;48.934;12.050;2023-06-22T05:14:29;7.72;;;5.72;;
68479;SDS011;55469;48.934;12.050;2023-06-22T05:16:55;8.10;;;5.70;;
68479;SDS011;55469;48.934;12.050;2023-06-22T05:19:23;7.10;;;6.00;;
68479;SDS011;55469;48.934;12.050;2023-06-22T05:21:50;8.05;;;5.30;;
68479;SDS011;55469;48.934;12.050;2023-06-22T05:24:16;8.00;;;6.00;;
68479;SDS011;55469;48.934;12.050;2023-06-22T05:26:41;6.53;;;4.93;;
68479;SDS011;55469;48.934;12.050;2023-06-22T05:29:07;10.20;;;5.78;;
68479;SDS011;55469;48.934;12.050;2023-06-22T05:31:33;10.50;;;6.10;;
68479;SDS011;55469;48.934;12.050;2023-06-22T05:33:58;8.32;;;5.25;;
68479;SDS011;55469;48.934;12.050;2023-06-22T05:36:25;8.32;;;5.43;;
68479;SDS011;55469;48.934;12.050;2023-06-22T05:38:53;7.15;;;5.35;;
68479;SDS011;55469;48.934;12.050;2023-06-22T05:41:21;6.35;;;5.18;;
68479;SDS011;55469;48.934;12.050;2023-06-22T05:43:47;5.57;;;4.50;;
68479;SDS011;55469;48.934;12.050;2023-06-22T05:46:13;6.10;;;5.50;;
68479;SDS011;55469;48.934;12.050;2023-06-22T05:48:39;8.40;;;5.63;;
68479;SDS011;55469;48.934;12.050;2023-06-22T05:51:05;7.35;;;5.20;;
68479;SDS011;55469;48.934;12.050;2023-06-22T05:53:31;6.50;;;5.18;;
68479;SDS011;55469;48.934;12.050;2023-06-22T05:55:57;6.68;;;5.07;;
68479;SDS011;55469;48.934;12.050;2023-06-22T05:58:23;6.40;;;5.35;;
68479;SDS011;55469;48.934;12.050;2023-06-22T06:00:48;7.88;;;5.55;;
68479;SDS011;55469;48.934;12.050;2023-06-22T06:03:14;6.38;;;5.03;;
68479;SDS011;55469;48.934;12.050;2023-06-22T06:05:42;6.18;;;5.57;;
68479;SDS011;55469;48.934;12.050;2023-06-22T06:08:09;7.60;;;5.28;;
68479;SDS011;55469;48.934;12.050;2023-06-22T06:10:36;7.22;;;5.05;;
68479;SDS011;55469;48.934;12.050;2023-06-22T06:13:02;6.43;;;4.95;;
68479;SDS011;55469;48.934;12.050;2023-06-22T06:15:29;9.63;;;6.05;;
68479;SDS011;55469;48.934;12.050;2023-06-22T06:17:56;6.43;;;5.55;;
68479;SDS011;55469;48.934;12.050;2023-06-22T06:20:22;8.15;;;5.78;;
68479;SDS011;55469;48.934;12.050;2023-06-22T06:22:49;6.55;;;4.93;;
68479;SDS011;55469;48.934;12.050;2023-06-22T06:25:15;7.95;;;6.05;;
68479;SDS011;55469;48.934;12.050;2023-06-22T06:27:43;7.97;;;5.22;;
68479;SDS011;55469;48.934;12.050;2023-06-22T06:30:10;6.38;;;5.38;;
68479;SDS011;55469;48.934;12.050;2023-06-22T06:32:38;9.15;;;5.80;;
68479;SDS011;55469;48.934;12.050;2023-06-22T06:35:07;6.85;;;5.00;;
68479;SDS011;55469;48.934;12.050;2023-06-22T06:37:38;7.57;;;5.05;;
68479;SDS011;55469;48.934;12.050;2023-06-22T06:40:06;7.97;;;5.15;;
68479;SDS011;55469;48.934;12.050;2023-06-22T06:42:36;5.95;;;4.65;;
68479;SDS011;55469;48.934;12.050;2023-06-22T06:45:10;8.18;;;4.82;;
68479;SDS011;55469;48.934;12.050;2023-06-22T06:47:38;6.13;;;4.97;;
68479;SDS011;55469;48.934;12.050;2023-06-22T06:50:05;5.68;;;4.38;;
68479;SDS011;55469;48.934;12.050;2023-06-22T06:52:31;6.32;;;4.88;;
68479;SDS011;55469;48.934;12.050;2023-06-22T06:54:57;6.45;;;4.80;;
68479;SDS011;55469;48.934;12.050;2023-06-22T06:57:24;5.47;;;4.00;;
68479;SDS011;55469;48.934;12.050;2023-06-22T06:59:54;5.22;;;4.03;;
68479;SDS011;55469;48.934;12.050;2023-06-22T07:02:21;7.45;;;4.30;;
68479;SDS011;55469;48.934;12.050;2023-06-22T07:04:48;5.20;;;4.05;;
68479;SDS011;55469;48.934;12.050;2023-06-22T07:07:14;5.95;;;4.10;;
68479;SDS011;55469;48.934;12.050;2023-06-22T07:09:39;7.78;;;4.38;;
68479;SDS011;55469;48.934;12.050;2023-06-22T07:12:05;4.80;;;4.05;;
68479;SDS011;55469;48.934;12.050;2023-06-22T07:14:32;6.00;;;4.07;;
68479;SDS011;55469;48.934;12.050;2023-06-22T07:16:57;4.88;;;3.83;;
68479;SDS011;55469;48.934;12.050;2023-06-22T07:19:24;4.97;;;3.95;;
68479;SDS011;55469;48.934;12.050;2023-06-22T07:21:51;6.10;;;4.10;;
68479;SDS011;55469;48.934;12.050;2023-06-22T07:24:18;6.32;;;4.22;;
68479;SDS011;55469;48.934;12.050;2023-06-22T07:26:47;5.93;;;3.80;;
68479;SDS011;55469;48.934;12.050;2023-06-22T07:29:15;4.18;;;3.60;;
68479;SDS011;55469;48.934;12.050;2023-06-22T07:31:45;6.63;;;3.90;;
68479;SDS011;55469;48.934;12.050;2023-06-22T07:34:11;5.57;;;3.95;;
68479;SDS011;55469;48.934;12.050;2023-06-22T07:36:37;5.35;;;3.90;;
68479;SDS011;55469;48.934;12.050;2023-06-22T07:39:03;5.63;;;4.00;;
68479;SDS011;55469;48.934;12.050;2023-06-22T07:41:29;5.07;;;3.90;;
68479;SDS011;55469;48.934;12.050;2023-06-22T07:43:55;5.00;;;3.60;;
68479;SDS011;55469;48.934;12.050;2023-06-22T07:46:21;5.03;;;3.63;;
68479;SDS011;55469;48.934;12.050;2023-06-22T07:48:47;4.10;;;3.67;;
68479;SDS011;55469;48.934;12.050;2023-06-22T07:51:13;5.60;;;3.80;;
68479;SDS011;55469;48.934;12.050;2023-06-22T07:53:43;6.90;;;3.88;;
68479;SDS011;55469;48.934;12.050;2023-06-22T07:56:12;5.13;;;3.60;;
68479;SDS011;55469;48.934;12.050;2023-06-22T07:58:39;5.45;;;3.67;;
68479;SDS011;55469;48.934;12.050;2023-06-22T08:01:04;5.10;;;4.03;;
68479;SDS011;55469;48.934;12.050;2023-06-22T08:03:31;5.00;;;3.50;;
68479;SDS011;55469;48.934;12.050;2023-06-22T08:05:57;5.25;;;3.60;;
68479;SDS011;55469;48.934;12.050;2023-06-22T08:08:23;6.50;;;4.10;;
68479;SDS011;55469;48.934;12.050;2023-06-22T08:10:49;5.10;;;3.92;;
68479;SDS011;55469;48.934;12.050;2023-06-22T08:13:15;4.68;;;3.80;;
68479;SDS011;55469;48.934;12.050;2023-06-22T08:15:40;4.95;;;3.60;;
68479;SDS011;55469;48.934;12.050;2023-06-22T08:18:06;5.95;;;3.97;;
68479;SDS011;55469;48.934;12.050;2023-06-22T08:20:32;6.45;;;3.83;;
68479;SDS011;55469;48.934;12.050;2023-06-22T08:22:58;6.57;;;3.90;;
68479;SDS011;55469;48.934;12.050;2023-06-22T08:25:30;5.38;;;4.00;;
68479;SDS011;55469;48.934;12.050;2023-06-22T08:27:55;5.55;;;3.90;;
68479;SDS011;55469;48.934;12.050;2023-06-22T08:30:21;5.50;;;4.25;;
68479;SDS011;55469;48.934;12.050;2023-06-22T08:32:47;5.97;;;3.80;;
68479;SDS011;55469;48.934;12.050;2023-06-22T08:35:13;6.90;;;3.80;;
68479;SDS011;55469;48.934;12.050;2023-06-22T08:37:39;5.30;;;3.58;;
68479;SDS011;55469;48.934;12.050;2023-06-22T08:40:05;5.80;;;3.88;;
68479;SDS011;55469;48.934;12.050;2023-06-22T08:42:34;6.72;;;3.75;;
68479;SDS011;55469;48.934;12.050;2023-06-22T08:45:05;4.63;;;3.90;;
68479;SDS011;55469;48.934;12.050;2023-06-22T08:47:32;5.20;;;3.90;;
68479;SDS011;55469;48.934;12.050;2023-06-22T08:49:57;10.07;;;4.13;;
68479;SDS011;55469;48.934;12.050;2023-06-22T08:52:23;7.45;;;3.85;;
68479;SDS011;55469;48.934;12.050;2023-06-22T08:54:49;7.03;;;4.20;;
68479;SDS011;55469;48.934;12.050;2023-06-22T08:57:16;5.07;;;3.80;;
68479;SDS011;55469;48.934;12.050;2023-06-22T08:59:52;5.00;;;4.00;;
68479;SDS011;55469;48.934;12.050;2023-06-22T09:02:18;6.72;;;4.03;;
68479;SDS011;55469;48.934;12.050;2023-06-22T09:04:48;6.88;;;3.97;;
68479;SDS011;55469;48.934;12.050;2023-06-22T09:07:24;5.32;;;3.67;;
68479;SDS011;55469;48.934;12.050;2023-06-22T09:09:51;5.25;;;3.75;;
68479;SDS011;55469;48.934;12.050;2023-06-22T09:12:20;5.28;;;3.80;;
68479;SDS011;55469;48.934;12.050;2023-06-22T09:14:49;6.80;;;3.83;;
68479;SDS011;55469;48.934;12.050;2023-06-22T09:17:15;5.90;;;3.72;;
68479;SDS011;55469;48.934;12.050;2023-06-22T09:19:40;6.18;;;4.20;;
68479;SDS011;55469;48.934;12.050;2023-06-22T09:22:06;5.65;;;3.83;;
68479;SDS011;55469;48.934;12.050;2023-06-22T09:24:32;4.43;;;3.58;;
68479;SDS011;55469;48.934;12.050;2023-06-22T09:26:58;4.65;;;3.80;;
68479;SDS011;55469;48.934;12.050;2023-06-22T09:29:24;6.85;;;3.78;;
68479;SDS011;55469;48.934;12.050;2023-06-22T09:31:50;5.50;;;3.83;;
68479;SDS011;55469;48.934;12.050;2023-06-22T09:34:15;4.72;;;3.70;;
68479;SDS011;55469;48.934;12.050;2023-06-22T09:36:45;6.22;;;4.07;;
68479;SDS011;55469;48.934;12.050;2023-06-22T09:39:14;5.63;;;3.85;;
68479;SDS011;55469;48.934;12.050;2023-06-22T09:41:39;7.88;;;3.95;;
68479;SDS011;55469;48.934;12.050;2023-06-22T09:44:05;6.30;;;4.10;;
68479;SDS011;55469;48.934;12.050;2023-06-22T09:46:31;5.95;;;4.13;;
68479;SDS011;55469;48.934;12.050;2023-06-22T09:48:57;5.22;;;3.97;;
68479;SDS011;55469;48.934;12.050;2023-06-22T09:51:23;6.18;;;4.13;;
68479;SDS011;55469;48.934;12.050;2023-06-22T09:53:49;5.07;;;4.03;;
68479;SDS011;55469;48.934;12.050;2023-06-22T09:56:16;6.90;;;4.40;;
68479;SDS011;55469;48.934;12.050;2023-06-22T09:58:42;5.72;;;4.00;;
68479;SDS011;55469;48.934;12.050;2023-06-22T10:01:08;5.13;;;4.00;;
68479;SDS011;55469;48.934;12.050;2023-06-22T10:03:39;5.75;;;4.40;;
68479;SDS011;55469;48.934;12.050;2023-06-22T10:06:06;7.03;;;4.15;;
68479;SDS011;55469;48.934;12.050;2023-06-22T10:08:32;6.07;;;3.90;;
68479;SDS011;55469;48.934;12.050;2023-06-22T10:10:58;7.78;;;4.10;;
68479;SDS011;55469;48.934;12.050;2023-06-22T10:13:24;6.50;;;4.18;;
68479;SDS011;55469;48.934;12.050;2023-06-22T10:15:49;6.43;;;4.10;;
68479;SDS011;55469;48.934;12.050;2023-06-22T10:18:17;7.10;;;4.35;;
68479;SDS011;55469;48.934;12.050;2023-06-22T10:20:43;7.35;;;4.00;;
68479;SDS011;55469;48.934;12.050;2023-06-22T10:23:12;7.53;;;4.13;;
68479;SDS011;55469;48.934;12.050;2023-06-22T10:25:37;5.40;;;4.07;;
68479;SDS011;55469;48.934;12.050;2023-06-22T10:28:03;7.03;;;4.03;;
68479;SDS011;55469;48.934;12.050;2023-06-22T10:30:29;7.95;;;4.35;;
68479;SDS011;55469;48.934;12.050;2023-06-22T10:32:54;7.22;;;4.00;;
68479;SDS011;55469;48.934;12.050;2023-06-22T10:35:20;6.45;;;3.95;;
68479;SDS011;55469;48.934;12.050;2023-06-22T10:37:46;7.60;;;4.40;;
68479;SDS011;55469;48.934;12.050;2023-06-22T10:40:13;6.43;;;4.20;;
68479;SDS011;55469;48.934;12.050;2023-06-22T10:42:40;6.35;;;3.88;;
68479;SDS011;55469;48.934;12.050;2023-06-22T10:45:08;6.40;;;4.13;;
68479;SDS011;55469;48.934;12.050;2023-06-22T10:47:34;5.68;;;4.00;;
68479;SDS011;55469;48.934;12.050;2023-06-22T10:50:01;7.47;;;4.25;;
68479;SDS011;55469;48.934;12.050;2023-06-22T10:52:27;6.03;;;4.00;;
68479;SDS011;55469;48.934;12.050;2023-06-22T10:54:53;6.15;;;4.30;;
68479;SDS011;55469;48.934;12.050;2023-06-22T10:57:19;5.75;;;4.28;;
68479;SDS011;55469;48.934;12.050;2023-06-22T10:59:44;7.30;;;4.43;;
68479;SDS011;55469;48.934;12.050;2023-06-22T11:02:10;6.40;;;4.22;;
68479;SDS011;55469;48.934;12.050;2023-06-22T11:04:37;6.70;;;4.43;;
68479;SDS011;55469;48.934;12.050;2023-06-22T11:07:03;6.45;;;4.15;;
68479;SDS011;55469;48.934;12.050;2023-06-22T11:09:29;7.50;;;4.28;;
68479;SDS011;55469;48.934;12.050;2023-06-22T11:11:55;5.97;;;4.15;;
68479;SDS011;55469;48.934;12.050;2023-06-22T11:14:21;9.40;;;4.75;;
68479;SDS011;55469;48.934;12.050;2023-06-22T11:16:47;6.38;;;4.10;;
68479;SDS011;55469;48.934;12.050;2023-06-22T11:19:13;6.57;;;4.30;;
68479;SDS011;55469;48.934;12.050;2023-06-22T11:21:39;5.85;;;4.25;;
68479;SDS011;55469;48.934;12.050;2023-06-22T11:24:05;6.65;;;4.35;;
68479;SDS011;55469;48.934;12.050;2023-06-22T11:26:31;7.40;;;4.50;;
68479;SDS011;55469;48.934;12.050;2023-06-22T11:28:58;5.68;;;4.32;;
68479;SDS011;55469;48.934;12.050;2023-06-22T11:31:24;8.25;;;4.20;;
68479;SDS011;55469;48.934;12.050;2023-06-22T11:33:50;7.43;;;4.50;;
68479;SDS011;55469;48.934;12.050;2023-06-22T11:36:16;7.85;;;4.60;;
68479;SDS011;55469;48.934;12.050;2023-06-22T11:38:42;6.35;;;4.60;;
68479;SDS011;55469;48.934;12.050;2023-06-22T11:41:09;7.25;;;4.28;;
68479;SDS011;55469;48.934;12.050;2023-06-22T11:43:35;8.27;;;4.00;;
68479;SDS011;55469;48.934;12.050;2023-06-22T11:46:04;6.40;;;4.47;;
68479;SDS011;55469;48.934;12.050;2023-06-22T11:48:30;7.32;;;4.60;;
68479;SDS011;55469;48.934;12.050;2023-06-22T11:50:56;7.60;;;4.35;;
68479;SDS011;55469;48.934;12.050;2023-06-22T11:53:23;5.40;;;4.35;;
68479;SDS011;55469;48.934;12.050;2023-06-22T11:55:51;6.25;;;4.35;;
68479;SDS011;55469;48.934;12.050;2023-06-22T11:58:18;6.40;;;4.30;;
68479;SDS011;55469;48.934;12.050;2023-06-22T12:00:44;7.45;;;4.20;;
68479;SDS011;55469;48.934;12.050;2023-06-22T12:03:10;8.68;;;4.60;;
68479;SDS011;55469;48.934;12.050;2023-06-22T12:05:37;7.50;;;4.90;;
68479;SDS011;55469;48.934;12.050;2023-06-22T12:08:03;7.43;;;4.45;;
68479;SDS011;55469;48.934;12.050;2023-06-22T12:10:29;7.03;;;4.80;;
68479;SDS011;55469;48.934;12.050;2023-06-22T12:12:55;8.35;;;4.40;;
68479;SDS011;55469;48.934;12.050;2023-06-22T12:15:22;6.25;;;4.70;;
68479;SDS011;55469;48.934;12.050;2023-06-22T12:17:48;7.60;;;4.72;;
68479;SDS011;55469;48.934;12.050;2023-06-22T12:20:15;7.95;;;4.88;;
68479;SDS011;55469;48.934;12.050;2023-06-22T12:22:41;9.75;;;5.22;;
68479;SDS011;55469;48.934;12.050;2023-06-22T12:25:07;7.88;;;4.82;;
68479;SDS011;55469;48.934;12.050;2023-06-22T12:27:37;7.32;;;4.60;;
68479;SDS011;55469;48.934;12.050;2023-06-22T12:30:06;9.20;;;4.97;;
68479;SDS011;55469;48.934;12.050;2023-06-22T12:32:34;7.93;;;4.32;;
68479;SDS011;55469;48.934;12.050;2023-06-22T12:35:00;7.05;;;4.72;;
68479;SDS011;55469;48.934;12.050;2023-06-22T12:37:25;8.13;;;4.50;;
68479;SDS011;55469;48.934;12.050;2023-06-22T12:39:52;6.65;;;4.43;;
68479;SDS011;55469;48.934;12.050;2023-06-22T12:42:19;5.95;;;4.40;;
68479;SDS011;55469;48.934;12.050;2023-06-22T12:44:46;5.95;;;4.38;;
68479;SDS011;55469;48.934;12.050;2023-06-22T12:47:11;6.63;;;4.50;;
68479;SDS011;55469;48.934;12.050;2023-06-22T12:49:38;7.15;;;4.65;;
68479;SDS011;55469;48.934;12.050;2023-06-22T12:52:08;6.72;;;4.05;;
68479;SDS011;55469;48.934;12.050;2023-06-22T12:54:35;6.82;;;4.50;;
68479;SDS011;55469;48.934;12.050;2023-06-22T12:57:01;7.68;;;4.50;;
68479;SDS011;55469;48.934;12.050;2023-06-22T12:59:26;5.05;;;4.28;;
68479;SDS011;55469;48.934;12.050;2023-06-22T13:01:52;6.53;;;4.50;;
68479;SDS011;55469;48.934;12.050;2023-06-22T13:04:18;7.20;;;4.90;;
68479;SDS011;55469;48.934;12.050;2023-06-22T13:06:45;6.88;;;4.60;;
68479;SDS011;55469;48.934;12.050;2023-06-22T13:09:14;6.82;;;4.57;;
68479;SDS011;55469;48.934;12.050;2023-06-22T13:11:40;6.57;;;4.75;;
68479;SDS011;55469;48.934;12.050;2023-06-22T13:14:07;5.45;;;4.50;;
68479;SDS011;55469;48.934;12.050;2023-06-22T13:16:33;4.63;;;4.10;;
68479;SDS011;55469;48.934;12.050;2023-06-22T13:18:59;6.30;;;4.60;;
68479;SDS011;55469;48.934;12.050;2023-06-22T13:21:24;6.18;;;4.45;;
68479;SDS011;55469;48.934;12.050;2023-06-22T13:23:50;8.88;;;4.80;;
68479;SDS011;55469;48.934;12.050;2023-06-22T13:26:16;6.50;;;4.35;;
68479;SDS011;55469;48.934;12.050;2023-06-22T13:28:42;6.38;;;3.95;;
68479;SDS011;55469;48.934;12.050;2023-06-22T13:31:07;9.32;;;4.50;;
68479;SDS011;55469;48.934;12.050;2023-06-22T13:33:33;8.32;;;4.70;;
68479;SDS011;55469;48.934;12.050;2023-06-22T13:35:59;8.27;;;4.15;;
68479;SDS011;55469;48.934;12.050;2023-06-22T13:38:24;4.60;;;4.05;;
68479;SDS011;55469;48.934;12.050;2023-06-22T13:40:50;8.38;;;4.72;;
68479;SDS011;55469;48.934;12.050;2023-06-22T13:43:16;5.72;;;4.50;;
68479;SDS011;55469;48.934;12.050;2023-06-22T13:45:42;6.53;;;4.00;;
68479;SDS011;55469;48.934;12.050;2023-06-22T13:48:08;4.90;;;3.90;;
68479;SDS011;55469;48.934;12.050;2023-06-22T13:50:34;6.18;;;4.03;;
68479;SDS011;55469;48.934;12.050;2023-06-22T13:53:00;7.07;;;4.20;;
68479;SDS011;55469;48.934;12.050;2023-06-22T13:55:26;5.10;;;4.18;;
68479;SDS011;55469;48.934;12.050;2023-06-22T13:57:53;6.22;;;4.05;;
68479;SDS011;55469;48.934;12.050;2023-06-22T14:00:19;5.82;;;4.10;;
68479;SDS011;55469;48.934;12.050;2023-06-22T14:02:44;8.52;;;4.00;;
68479;SDS011;55469;48.934;12.050;2023-06-22T14:05:10;6.82;;;4.07;;
68479;SDS011;55469;48.934;12.050;2023-06-22T14:07:36;4.88;;;3.95;;
68479;SDS011;55469;48.934;12.050;2023-06-22T14:10:02;5.97;;;3.92;;
68479;SDS011;55469;48.934;12.050;2023-06-22T14:12:29;5.28;;;3.83;;
68479;SDS011;55469;48.934;12.050;2023-06-22T14:14:54;5.97;;;4.00;;
68479;SDS011;55469;48.934;12.050;2023-06-22T14:17:20;5.10;;;3.95;;
68479;SDS011;55469;48.934;12.050;2023-06-22T14:19:50;5.88;;;4.03;;
68479;SDS011;55469;48.934;12.050;2023-06-22T14:22:20;6.85;;;4.07;;
68479;SDS011;55469;48.934;12.050;2023-06-22T14:24:47;6.25;;;4.07;;
68479;SDS011;55469;48.934;12.050;2023-06-22T14:27:13;6.03;;;4.28;;
68479;SDS011;55469;48.934;12.050;2023-06-22T14:29:40;8.15;;;3.78;;
68479;SDS011;55469;48.934;12.050;2023-06-22T14:32:06;6.10;;;4.00;;
68479;SDS011;55469;48.934;12.050;2023-06-22T14:34:32;5.93;;;3.88;;
68479;SDS011;55469;48.934;12.050;2023-06-22T14:37:01;7.95;;;4.05;;
68479;SDS011;55469;48.934;12.050;2023-06-22T14:39:27;6.03;;;3.95;;
68479;SDS011;55469;48.934;12.050;2023-06-22T14:41:53;6.53;;;3.65;;
68479;SDS011;55469;48.934;12.050;2023-06-22T14:44:19;4.72;;;3.83;;